Time;durP1;ratioP1;P1;durP2;ratioP2;P2;SDS_P1;SDS_P2;PMS_P1;PMS_P2;Temp;Humidity;BMP_temperature;BMP_pressure;BME280_temperature;BME280_humidity;BME280_pressure;Samples;Min_cycle;Max_cycle;Signal;HPM_P1;HPM_P2
2021/01/30 00:00:31;;;;;;;301.30;122.13;;;;;;;;;;5037080;28;20176;-89
2021/01/30 00:02:56;;;;;;;311.27;126.10;;;;;;;;;;5036904;28;20541;-89
2021/01/30 00:05:23;;;;;;;326.40;130.07;;;;;;;;;;5036969;28;20189;-88
2021/01/30 00:07:50;;;;;;;322.87;129.37;;;;;;;;;;5037025;28;20695;-89
2021/01/30 00:10:16;;;;;;;345.07;127.93;;;;;;;;;;5054758;28;20250;-88
2021/01/30 00:12:41;;;;;;;286.40;113.50;;;;;;;;;;5036305;28;20286;-87
2021/01/30 00:15:07;;;;;;;330.33;124.50;;;;;;;;;;5054134;28;20178;-88
2021/01/30 00:17:32;;;;;;;257.57;106.80;;;;;;;;;;5054561;28;20282;-88
2021/01/30 00:19:58;;;;;;;249.73;103.33;;;;;;;;;;5054328;28;20175;-88
2021/01/30 00:22:24;;;;;;;249.53;101.77;;;;;;;;;;5035281;28;20175;-88
2021/01/30 00:24:50;;;;;;;243.70;105.27;;;;;;;;;;5054114;28;20224;-88
2021/01/30 00:27:18;;;;;;;236.70;101.10;;;;;;;;;;5036563;28;20237;-88
2021/01/30 00:29:44;;;;;;;255.70;104.63;;;;;;;;;;5054482;28;20217;-88
2021/01/30 00:32:11;;;;;;;239.27;101.83;;;;;;;;;;5053922;28;20191;-88
2021/01/30 00:34:37;;;;;;;280.33;111.17;;;;;;;;;;5054310;28;20163;-88
2021/01/30 00:37:29;;;;;;;289.07;117.47;;;;;;;;;;5036048;28;20187;-88
2021/01/30 00:39:54;;;;;;;336.63;123.87;;;;;;;;;;5050324;28;20196;-88
2021/01/30 00:42:21;;;;;;;369.70;133.53;;;;;;;;;;5035640;28;20182;-88
2021/01/30 00:44:47;;;;;;;320.77;120.17;;;;;;;;;;5053724;28;20582;-88
2021/01/30 00:47:13;;;;;;;223.97;92.27;;;;;;;;;;5035747;28;20171;-88
2021/01/30 00:49:44;;;;;;;230.23;97.50;;;;;;;;;;5053572;28;20539;-88
2021/01/30 00:52:10;;;;;;;238.97;97.37;;;;;;;;;;5035899;28;20182;-88
2021/01/30 00:54:35;;;;;;;278.90;116.97;;;;;;;;;;5035647;28;20589;-88
2021/01/30 00:57:00;;;;;;;266.80;113.13;;;;;;;;;;5053099;28;20178;-88
2021/01/30 00:59:26;;;;;;;238.50;100.77;;;;;;;;;;5053563;28;20228;-89
2021/01/30 01:01:52;;;;;;;271.10;106.57;;;;;;;;;;5035840;28;20267;-89
2021/01/30 01:04:18;;;;;;;248.40;104.30;;;;;;;;;;5035706;28;20341;-89
2021/01/30 01:06:43;;;;;;;228.93;99.90;;;;;;;;;;5053656;28;20199;-88
2021/01/30 01:09:09;;;;;;;238.23;98.93;;;;;;;;;;5035682;28;20701;-88
2021/01/30 01:11:35;;;;;;;233.90;101.23;;;;;;;;;;5035248;28;20561;-88
2021/01/30 01:14:00;;;;;;;273.03;108.13;;;;;;;;;;5053304;28;20211;-88
2021/01/30 01:16:26;;;;;;;253.17;105.50;;;;;;;;;;5053849;28;20175;-88
2021/01/30 01:18:51;;;;;;;267.10;106.10;;;;;;;;;;5036475;28;20233;-88
2021/01/30 01:21:17;;;;;;;237.90;102.53;;;;;;;;;;5054427;28;20229;-89
2021/01/30 01:23:43;;;;;;;232.63;95.13;;;;;;;;;;5054401;28;20218;-88
2021/01/30 01:26:08;;;;;;;238.43;101.20;;;;;;;;;;5054281;28;20288;-88
2021/01/30 01:28:34;;;;;;;258.37;101.33;;;;;;;;;;5054414;28;20172;-88
2021/01/30 01:30:59;;;;;;;237.50;99.37;;;;;;;;;;5054423;28;20175;-88
2021/01/30 01:33:24;;;;;;;213.23;91.43;;;;;;;;;;5054097;28;20175;-88
2021/01/30 01:35:50;;;;;;;219.00;89.53;;;;;;;;;;5053838;28;20171;-88
2021/01/30 01:38:15;;;;;;;205.97;89.70;;;;;;;;;;5054024;28;20171;-88
2021/01/30 01:40:41;;;;;;;203.20;84.93;;;;;;;;;;5053973;28;20194;-88
2021/01/30 01:43:11;;;;;;;186.60;80.70;;;;;;;;;;5053633;28;20209;-88
2021/01/30 01:45:37;;;;;;;192.27;82.50;;;;;;;;;;5054215;28;20172;-88
2021/01/30 01:48:05;;;;;;;179.63;78.43;;;;;;;;;;5053793;28;20570;-88
2021/01/30 01:50:41;;;;;;;154.90;70.67;;;;;;;;;;5053870;28;20172;-88
2021/01/30 01:53:12;;;;;;;153.13;71.93;;;;;;;;;;5053489;28;20175;-88
2021/01/30 01:55:39;;;;;;;163.17;72.23;;;;;;;;;;5054467;28;20167;-87
2021/01/30 01:58:05;;;;;;;155.87;74.87;;;;;;;;;;5036953;28;20547;-88
2021/01/30 02:00:30;;;;;;;167.27;73.43;;;;;;;;;;5053736;28;20176;-88
2021/01/30 02:02:56;;;;;;;163.37;70.17;;;;;;;;;;5053646;28;20317;-88
2021/01/30 02:05:24;;;;;;;150.27;66.97;;;;;;;;;;5053587;28;20225;-88
2021/01/30 02:07:49;;;;;;;126.83;59.57;;;;;;;;;;5053551;28;20187;-88
2021/01/30 02:10:22;;;;;;;132.70;58.37;;;;;;;;;;5035855;28;20176;-88
2021/01/30 02:12:49;;;;;;;171.97;71.07;;;;;;;;;;5035792;28;20729;-88
2021/01/30 02:15:16;;;;;;;181.90;69.23;;;;;;;;;;5053545;28;20516;-88
2021/01/30 02:17:49;;;;;;;141.37;57.37;;;;;;;;;;5053210;28;20199;-88
2021/01/30 02:20:14;;;;;;;165.23;70.73;;;;;;;;;;5035369;28;20222;-88
2021/01/30 02:22:57;;;;;;;196.57;82.37;;;;;;;;;;5053957;28;20261;-89
2021/01/30 02:25:37;;;;;;;249.33;99.10;;;;;;;;;;5035273;28;20246;-89
2021/01/30 02:28:10;;;;;;;248.07;97.03;;;;;;;;;;5053904;28;20609;-89
2021/01/30 02:30:50;;;;;;;232.73;93.03;;;;;;;;;;5053236;28;20171;-89
2021/01/30 02:33:16;;;;;;;192.03;79.80;;;;;;;;;;5053965;28;20171;-88
2021/01/30 02:35:56;;;;;;;161.77;71.67;;;;;;;;;;5053081;28;20689;-88
2021/01/30 02:38:23;;;;;;;176.40;74.33;;;;;;;;;;5053772;28;20195;-88
2021/01/30 02:40:50;;;;;;;179.70;76.73;;;;;;;;;;5053631;28;20183;-88
2021/01/30 02:43:19;;;;;;;174.50;78.00;;;;;;;;;;5053479;28;20329;-88
2021/01/30 02:45:55;;;;;;;184.23;76.63;;;;;;;;;;5054981;28;20250;-88
2021/01/30 02:48:23;;;;;;;192.10;80.57;;;;;;;;;;5057826;28;20164;-88
2021/01/30 02:50:49;;;;;;;177.60;75.10;;;;;;;;;;5057132;28;20194;-89
2021/01/30 02:53:17;;;;;;;166.47;71.80;;;;;;;;;;5057261;28;20175;-89
2021/01/30 02:55:43;;;;;;;160.30;70.23;;;;;;;;;;5057024;28;20179;-89
2021/01/30 02:58:10;;;;;;;162.60;71.43;;;;;;;;;;5056761;28;20185;-88
2021/01/30 03:00:36;;;;;;;164.87;71.97;;;;;;;;;;5057575;28;20616;-88
2021/01/30 03:03:01;;;;;;;144.87;66.07;;;;;;;;;;5056802;28;20207;-88
2021/01/30 03:05:26;;;;;;;140.73;60.97;;;;;;;;;;5056715;28;20168;-88
2021/01/30 03:08:01;;;;;;;123.60;55.73;;;;;;;;;;5056510;28;20175;-88
2021/01/30 03:10:38;;;;;;;126.40;57.80;;;;;;;;;;5056739;28;20174;-89
2021/01/30 03:13:26;;;;;;;113.60;55.37;;;;;;;;;;5056128;28;20203;-89
2021/01/30 03:15:58;;;;;;;109.17;50.80;;;;;;;;;;5056722;28;20166;-89
2021/01/30 03:18:26;;;;;;;94.50;46.20;;;;;;;;;;5056375;28;20175;-89
2021/01/30 03:20:52;;;;;;;100.63;47.87;;;;;;;;;;5056349;28;20176;-89
2021/01/30 03:23:18;;;;;;;79.93;38.83;;;;;;;;;;5056555;28;20207;-88
2021/01/30 03:25:44;;;;;;;71.97;36.50;;;;;;;;;;5056253;28;20227;-88
2021/01/30 03:28:11;;;;;;;54.87;30.50;;;;;;;;;;5056502;28;20179;-88
2021/01/30 03:30:36;;;;;;;55.93;30.77;;;;;;;;;;5057123;28;20180;-88
2021/01/30 03:33:02;;;;;;;54.00;30.77;;;;;;;;;;5056109;28;20650;-88
2021/01/30 03:35:27;;;;;;;48.77;28.33;;;;;;;;;;5056891;28;20542;-88
2021/01/30 03:37:53;;;;;;;47.07;26.57;;;;;;;;;;5056532;28;20255;-87
2021/01/30 03:40:19;;;;;;;53.90;28.73;;;;;;;;;;5056365;28;20168;-87
2021/01/30 03:42:44;;;;;;;45.93;26.07;;;;;;;;;;5055786;28;20206;-88
2021/01/30 03:45:11;;;;;;;56.70;31.30;;;;;;;;;;5038149;28;20180;-88
2021/01/30 03:47:36;;;;;;;63.63;31.90;;;;;;;;;;5056690;28;20179;-88
2021/01/30 03:50:03;;;;;;;57.67;32.27;;;;;;;;;;5056066;28;20564;-87
2021/01/30 03:52:29;;;;;;;82.30;41.53;;;;;;;;;;5055858;28;20510;-87
2021/01/30 03:54:54;;;;;;;80.17;38.73;;;;;;;;;;5055744;28;20175;-87
2021/01/30 03:57:19;;;;;;;75.23;38.40;;;;;;;;;;5055528;28;20187;-88
2021/01/30 03:59:45;;;;;;;63.83;33.97;;;;;;;;;;5056470;28;20172;-88
2021/01/30 04:02:10;;;;;;;66.50;36.60;;;;;;;;;;5056068;28;20266;-88
2021/01/30 04:04:35;;;;;;;67.50;35.77;;;;;;;;;;5055750;28;20214;-88
2021/01/30 04:07:01;;;;;;;63.63;35.53;;;;;;;;;;5056002;28;20168;-88
2021/01/30 04:09:27;;;;;;;63.37;33.67;;;;;;;;;;5055663;28;20257;-88
2021/01/30 04:11:52;;;;;;;70.03;36.30;;;;;;;;;;5055642;28;20175;-88
2021/01/30 04:14:18;;;;;;;66.80;35.07;;;;;;;;;;5055856;28;20205;-88
2021/01/30 04:16:43;;;;;;;63.83;35.57;;;;;;;;;;5055411;28;20175;-87
2021/01/30 04:19:09;;;;;;;72.97;38.40;;;;;;;;;;5056045;28;20275;-88
2021/01/30 04:21:34;;;;;;;64.50;34.33;;;;;;;;;;5055453;28;20223;-88
2021/01/30 04:23:59;;;;;;;94.97;46.90;;;;;;;;;;5056586;28;20192;-87
2021/01/30 04:26:25;;;;;;;103.07;50.10;;;;;;;;;;5057399;28;20671;-87
2021/01/30 04:28:51;;;;;;;88.60;44.00;;;;;;;;;;5057074;28;20172;-88
2021/01/30 04:31:16;;;;;;;161.40;66.50;;;;;;;;;;5056920;28;20175;-87
2021/01/30 04:33:41;;;;;;;154.03;64.13;;;;;;;;;;5057324;28;20263;-88
2021/01/30 04:36:07;;;;;;;115.37;51.27;;;;;;;;;;5056756;28;20164;-88
2021/01/30 04:38:32;;;;;;;127.00;56.13;;;;;;;;;;5055085;28;20164;-89
2021/01/30 04:41:18;;;;;;;113.93;53.83;;;;;;;;;;5054983;28;20180;-88
2021/01/30 04:44:10;;;;;;;113.73;53.73;;;;;;;;;;5054357;28;20216;-88
2021/01/30 04:46:54;;;;;;;95.07;45.10;;;;;;;;;;5059011;28;20282;-89
2021/01/30 04:49:19;;;;;;;85.90;42.00;;;;;;;;;;5079961;28;20181;-89
2021/01/30 04:52:01;;;;;;;104.23;47.37;;;;;;;;;;5077467;28;20188;-88
2021/01/30 04:54:29;;;;;;;92.63;45.27;;;;;;;;;;5054512;28;20172;-89
2021/01/30 04:56:54;;;;;;;81.00;39.70;;;;;;;;;;5064742;28;20250;-89
2021/01/30 04:59:35;;;;;;;61.50;31.80;;;;;;;;;;5054684;28;20203;-89
2021/01/30 05:02:03;;;;;;;57.17;31.20;;;;;;;;;;5055298;28;20612;-89
2021/01/30 05:04:36;;;;;;;47.37;26.93;;;;;;;;;;5054553;28;20199;-88
2021/01/30 05:07:05;;;;;;;47.40;27.30;;;;;;;;;;5054547;28;20176;-88
2021/01/30 05:09:39;;;;;;;52.23;29.77;;;;;;;;;;5054247;28;20168;-89
2021/01/30 05:12:11;;;;;;;55.13;30.17;;;;;;;;;;5055035;28;20262;-88
2021/01/30 05:14:40;;;;;;;50.20;29.33;;;;;;;;;;5054601;28;20278;-89
2021/01/30 05:17:19;;;;;;;52.67;29.60;;;;;;;;;;5054647;28;20168;-88
2021/01/30 05:19:49;;;;;;;53.70;31.37;;;;;;;;;;5054985;28;20168;-89
2021/01/30 05:22:15;;;;;;;55.00;31.53;;;;;;;;;;5054570;28;20182;-89
2021/01/30 05:24:44;;;;;;;68.30;36.40;;;;;;;;;;5053668;28;20681;-88
2021/01/30 05:27:09;;;;;;;60.73;36.50;;;;;;;;;;5054384;28;20164;-89
2021/01/30 05:29:52;;;;;;;61.03;34.97;;;;;;;;;;5054585;28;20539;-88
2021/01/30 05:32:18;;;;;;;64.93;34.70;;;;;;;;;;5054156;28;20171;-88
2021/01/30 05:34:47;;;;;;;77.97;39.47;;;;;;;;;;5054101;28;20182;-88
2021/01/30 05:37:15;;;;;;;54.83;28.90;;;;;;;;;;5036643;28;20543;-88
2021/01/30 05:39:52;;;;;;;54.77;29.30;;;;;;;;;;5053714;28;20186;-89
2021/01/30 05:42:17;;;;;;;56.67;30.53;;;;;;;;;;5054537;28;20620;-89
2021/01/30 05:44:48;;;;;;;58.00;30.53;;;;;;;;;;5053865;28;20270;-89
2021/01/30 05:47:16;;;;;;;62.57;33.63;;;;;;;;;;5053943;28;20171;-88
2021/01/30 05:49:49;;;;;;;54.27;29.03;;;;;;;;;;5053646;28;20175;-88
2021/01/30 05:52:18;;;;;;;53.53;30.93;;;;;;;;;;5054401;28;20247;-88
2021/01/30 05:54:44;;;;;;;58.73;31.77;;;;;;;;;;5053865;28;20172;-88
2021/01/30 05:57:09;;;;;;;55.93;32.03;;;;;;;;;;5035921;28;20178;-87
2021/01/30 05:59:36;;;;;;;57.00;31.93;;;;;;;;;;5054014;28;20172;-89
2021/01/30 06:02:11;;;;;;;50.57;31.20;;;;;;;;;;5054019;28;20229;-89
2021/01/30 06:04:36;;;;;;;55.70;31.93;;;;;;;;;;5035708;28;20238;-88
2021/01/30 06:07:01;;;;;;;51.50;31.30;;;;;;;;;;5053725;28;20207;-89
2021/01/30 06:09:27;;;;;;;56.00;33.13;;;;;;;;;;5053626;28;20270;-88
2021/01/30 06:11:52;;;;;;;53.70;29.67;;;;;;;;;;5053626;28;20168;-89
2021/01/30 06:14:27;;;;;;;57.33;33.03;;;;;;;;;;5054058;28;20615;-88
2021/01/30 06:16:59;;;;;;;58.97;31.53;;;;;;;;;;5053847;28;20216;-89
2021/01/30 06:19:25;;;;;;;55.83;30.90;;;;;;;;;;5053849;28;20227;-88
2021/01/30 06:22:09;;;;;;;54.20;31.07;;;;;;;;;;5057001;28;20176;-89
2021/01/30 06:24:35;;;;;;;64.20;32.80;;;;;;;;;;5039490;28;20605;-88
2021/01/30 06:27:08;;;;;;;62.40;35.00;;;;;;;;;;5039961;28;20179;-88
2021/01/30 06:29:41;;;;;;;59.77;32.03;;;;;;;;;;5057256;28;20176;-89
2021/01/30 06:32:10;;;;;;;59.90;32.17;;;;;;;;;;5040047;28;20516;-88
2021/01/30 06:34:37;;;;;;;68.40;34.30;;;;;;;;;;5057751;28;20175;-88
2021/01/30 06:37:05;;;;;;;57.97;31.83;;;;;;;;;;5057630;28;20178;-88
2021/01/30 06:39:32;;;;;;;59.27;34.80;;;;;;;;;;5057005;28;20187;-88
2021/01/30 06:42:02;;;;;;;100.70;56.37;;;;;;;;;;5057744;28;20179;-88
2021/01/30 06:44:30;;;;;;;84.37;47.23;;;;;;;;;;5057556;28;20256;-88
2021/01/30 06:47:10;;;;;;;62.10;35.40;;;;;;;;;;5040036;28;20176;-87
2021/01/30 06:49:46;;;;;;;66.07;34.47;;;;;;;;;;5057423;28;20171;-87
2021/01/30 06:52:14;;;;;;;56.97;30.67;;;;;;;;;;5057061;28;20233;-87
2021/01/30 06:54:39;;;;;;;49.43;26.57;;;;;;;;;;5040114;28;20549;-87
2021/01/30 06:57:12;;;;;;;66.93;39.33;;;;;;;;;;5056752;28;20222;-87
2021/01/30 06:59:58;;;;;;;74.53;42.17;;;;;;;;;;5065058;28;20176;-87
2021/01/30 07:02:34;;;;;;;66.77;35.87;;;;;;;;;;5081179;28;20193;-88
2021/01/30 07:05:08;;;;;;;61.73;34.10;;;;;;;;;;5081380;28;20255;-88
2021/01/30 07:07:38;;;;;;;81.13;42.63;;;;;;;;;;5075962;28;20178;-88
2021/01/30 07:10:21;;;;;;;87.23;45.07;;;;;;;;;;5073807;28;20179;-88
2021/01/30 07:12:58;;;;;;;64.13;33.47;;;;;;;;;;5063114;28;20263;-88
2021/01/30 07:15:26;;;;;;;68.63;35.87;;;;;;;;;;5056684;28;20183;-88
2021/01/30 07:18:11;;;;;;;71.40;39.27;;;;;;;;;;5056926;28;20624;-88
2021/01/30 07:20:36;;;;;;;71.70;37.67;;;;;;;;;;5056640;28;20790;-88
2021/01/30 07:23:11;;;;;;;64.73;34.23;;;;;;;;;;5038611;28;20298;-87
2021/01/30 07:26:00;;;;;;;90.83;44.13;;;;;;;;;;5056057;28;20226;-88
2021/01/30 07:28:28;;;;;;;66.53;38.07;;;;;;;;;;5045368;28;20183;-88
2021/01/30 07:30:59;;;;;;;71.07;39.23;;;;;;;;;;5056034;28;20258;-88
2021/01/30 07:33:39;;;;;;;63.73;35.77;;;;;;;;;;5056883;28;20167;-88
2021/01/30 07:36:07;;;;;;;66.63;36.33;;;;;;;;;;5056570;28;20182;-88
2021/01/30 07:38:39;;;;;;;63.63;34.63;;;;;;;;;;5056303;28;20259;-88
2021/01/30 07:41:14;;;;;;;55.13;29.83;;;;;;;;;;5038245;28;20176;-88
2021/01/30 07:43:46;;;;;;;49.93;28.07;;;;;;;;;;5056590;28;20274;-88
2021/01/30 07:46:17;;;;;;;48.33;26.03;;;;;;;;;;5056342;28;20263;-88
2021/01/30 07:49:03;;;;;;;55.23;32.23;;;;;;;;;;5056308;28;20180;-88
2021/01/30 07:51:31;;;;;;;60.93;36.60;;;;;;;;;;5055184;28;20632;-89
2021/01/30 07:53:56;;;;;;;79.00;43.70;;;;;;;;;;5038096;28;20275;-89
2021/01/30 07:56:34;;;;;;;78.97;41.07;;;;;;;;;;5055677;28;20255;-89
2021/01/30 07:59:08;;;;;;;61.97;33.53;;;;;;;;;;5038068;28;20612;-89
2021/01/30 08:01:36;;;;;;;63.17;35.77;;;;;;;;;;5056175;28;20234;-89
2021/01/30 08:04:05;;;;;;;56.17;32.53;;;;;;;;;;5037794;28;20678;-88
2021/01/30 08:06:45;;;;;;;64.43;36.83;;;;;;;;;;5055480;28;20172;-89
2021/01/30 08:09:20;;;;;;;55.10;31.60;;;;;;;;;;5055391;28;20176;-87
2021/01/30 08:11:55;;;;;;;60.63;34.80;;;;;;;;;;5056034;28;20552;-89
2021/01/30 08:14:35;;;;;;;84.80;46.70;;;;;;;;;;5037517;28;20544;-92
2021/01/30 08:17:13;;;;;;;93.70;52.27;;;;;;;;;;5038501;28;20263;-89
2021/01/30 08:19:47;;;;;;;101.03;55.47;;;;;;;;;;5055570;28;20197;-89
2021/01/30 08:22:25;;;;;;;81.73;45.43;;;;;;;;;;5055197;28;20228;-88
2021/01/30 08:24:55;;;;;;;66.70;36.67;;;;;;;;;;5055235;28;20234;-87
2021/01/30 08:27:26;;;;;;;67.93;39.50;;;;;;;;;;5055369;28;20168;-89
2021/01/30 08:30:15;;;;;;;75.53;40.63;;;;;;;;;;5055643;28;20179;-89
2021/01/30 08:32:53;;;;;;;86.73;44.30;;;;;;;;;;5044290;28;20191;-89
2021/01/30 08:35:22;;;;;;;91.70;46.03;;;;;;;;;;5055487;28;20205;-89
2021/01/30 08:37:57;;;;;;;66.37;34.67;;;;;;;;;;5055379;28;20171;-88
2021/01/30 08:40:41;;;;;;;75.90;41.20;;;;;;;;;;5054789;28;20178;-89
2021/01/30 08:43:07;;;;;;;68.07;40.83;;;;;;;;;;5036510;28;20632;-89
2021/01/30 08:45:33;;;;;;;84.47;47.33;;;;;;;;;;5055253;28;20196;-89
2021/01/30 08:48:01;;;;;;;72.13;39.87;;;;;;;;;;5054889;28;20715;-89
2021/01/30 08:50:26;;;;;;;80.43;43.63;;;;;;;;;;5054817;28;20176;-89
2021/01/30 08:52:56;;;;;;;98.70;51.17;;;;;;;;;;5054473;28;20209;-90
2021/01/30 08:55:23;;;;;;;93.17;51.13;;;;;;;;;;5052581;28;20187;-91
2021/01/30 08:57:49;;;;;;;125.93;69.93;;;;;;;;;;5036782;28;20184;-92
2021/01/30 09:00:26;;;;;;;107.70;55.60;;;;;;;;;;5033379;28;20233;-91
2021/01/30 09:03:02;;;;;;;112.03;58.37;;;;;;;;;;5054786;28;20632;-90
2021/01/30 09:05:40;;;;;;;85.90;46.47;;;;;;;;;;5054456;28;20171;-92
2021/01/30 09:08:11;;;;;;;83.03;46.17;;;;;;;;;;5036440;28;20521;-92
2021/01/30 09:10:40;;;;;;;117.87;70.90;;;;;;;;;;5036664;28;20184;-93
2021/01/30 09:13:08;;;;;;;125.43;67.90;;;;;;;;;;5036682;28;20212;-93
2021/01/30 09:15:41;;;;;;;82.93;46.23;;;;;;;;;;5036862;28;20172;-93
2021/01/30 09:18:17;;;;;;;68.83;41.13;;;;;;;;;;5036777;28;20191;-93
2021/01/30 09:20:55;;;;;;;72.40;42.33;;;;;;;;;;5053456;28;20321;-88
2021/01/30 09:23:43;;;;;;;119.47;60.27;;;;;;;;;;5054171;28;20238;-92
2021/01/30 09:26:14;;;;;;;118.07;59.53;;;;;;;;;;5025462;28;20684;-92
2021/01/30 09:28:39;;;;;;;124.20;62.43;;;;;;;;;;5036442;28;20207;-91
2021/01/30 09:31:12;;;;;;;103.93;53.23;;;;;;;;;;5053814;28;20167;-90
2021/01/30 09:33:42;;;;;;;96.60;52.87;;;;;;;;;;5035842;28;20180;-90
2021/01/30 09:36:14;;;;;;;80.70;47.03;;;;;;;;;;5053559;28;20168;-90
2021/01/30 09:38:42;;;;;;;107.70;59.77;;;;;;;;;;5035796;28;20180;-91
2021/01/30 09:41:28;;;;;;;97.40;54.17;;;;;;;;;;5053828;28;20189;-90
2021/01/30 09:44:05;;;;;;;177.33;83.83;;;;;;;;;;5054361;28;20219;-91
2021/01/30 09:46:36;;;;;;;177.50;91.30;;;;;;;;;;5037670;28;20179;-90
2021/01/30 09:49:04;;;;;;;96.33;48.60;;;;;;;;;;5036263;28;20182;-90
2021/01/30 09:51:30;;;;;;;77.77;42.47;;;;;;;;;;5055929;28;20226;-90
2021/01/30 09:53:59;;;;;;;119.03;66.40;;;;;;;;;;5037004;28;20183;-89
2021/01/30 09:56:25;;;;;;;137.40;72.47;;;;;;;;;;5036377;28;20190;-89
2021/01/30 09:58:59;;;;;;;128.30;57.53;;;;;;;;;;5052746;28;20183;-89
2021/01/30 10:01:28;;;;;;;122.20;62.70;;;;;;;;;;5047501;28;20187;-89
2021/01/30 10:03:53;;;;;;;105.27;53.70;;;;;;;;;;5051574;28;20242;-90
2021/01/30 10:06:33;;;;;;;142.57;68.00;;;;;;;;;;5034655;28;20214;-90
2021/01/30 10:09:17;;;;;;;91.90;44.77;;;;;;;;;;5034676;28;20186;-89
2021/01/30 10:11:45;;;;;;;55.13;31.47;;;;;;;;;;5053034;28;20183;-88
2021/01/30 10:14:15;;;;;;;80.33;36.47;;;;;;;;;;5034611;28;20204;-89
2021/01/30 10:16:41;;;;;;;72.13;33.93;;;;;;;;;;5031977;28;20568;-89
2021/01/30 10:19:10;;;;;;;71.53;33.20;;;;;;;;;;5041778;28;20637;-89
2021/01/30 10:21:41;;;;;;;85.17;38.67;;;;;;;;;;5032859;28;20181;-90
2021/01/30 10:24:19;;;;;;;85.60;42.87;;;;;;;;;;5015378;28;20262;-90
2021/01/30 10:26:45;;;;;;;91.30;47.40;;;;;;;;;;5033281;28;20224;-90
2021/01/30 10:29:12;;;;;;;59.67;32.50;;;;;;;;;;5015238;28;20459;-90
2021/01/30 10:31:37;;;;;;;61.87;33.87;;;;;;;;;;5032611;28;20588;-89
2021/01/30 10:34:24;;;;;;;52.90;31.53;;;;;;;;;;5015195;28;20259;-90
2021/01/30 10:36:56;;;;;;;48.57;28.67;;;;;;;;;;5015081;28;20241;-91
2021/01/30 10:39:22;;;;;;;70.87;36.80;;;;;;;;;;5023551;28;20223;-91
2021/01/30 10:41:48;;;;;;;48.27;28.47;;;;;;;;;;5034772;28;20586;-88
2021/01/30 10:44:20;;;;;;;44.57;23.87;;;;;;;;;;5051376;28;20237;-88
2021/01/30 10:46:45;;;;;;;49.13;29.30;;;;;;;;;;5051824;28;20211;-89
2021/01/30 10:49:22;;;;;;;73.57;40.00;;;;;;;;;;5051865;28;20250;-88
2021/01/30 10:51:55;;;;;;;58.00;32.73;;;;;;;;;;5052050;28;20742;-89
2021/01/30 10:54:23;;;;;;;72.37;37.50;;;;;;;;;;5052027;28;20192;-88
2021/01/30 10:57:01;;;;;;;74.27;39.67;;;;;;;;;;5034351;28;20184;-89
2021/01/30 10:59:26;;;;;;;74.13;41.30;;;;;;;;;;5049980;28;20176;-88
2021/01/30 11:01:52;;;;;;;68.70;38.60;;;;;;;;;;5049495;28;20188;-89
2021/01/30 11:04:27;;;;;;;68.73;37.87;;;;;;;;;;5033789;28;20298;-88
2021/01/30 11:06:57;;;;;;;63.37;34.13;;;;;;;;;;5035631;28;20198;-89
2021/01/30 11:09:25;;;;;;;81.53;37.93;;;;;;;;;;5055022;28;20180;-87
2021/01/30 11:11:52;;;;;;;73.97;39.37;;;;;;;;;;5036301;28;20176;-88
2021/01/30 11:14:28;;;;;;;69.30;36.33;;;;;;;;;;5037385;28;20550;-88
2021/01/30 11:16:54;;;;;;;66.63;36.33;;;;;;;;;;5055203;28;20534;-89
2021/01/30 11:19:24;;;;;;;62.03;32.90;;;;;;;;;;5037844;28;20175;-88
2021/01/30 11:22:05;;;;;;;59.63;34.53;;;;;;;;;;5055734;28;20198;-88
2021/01/30 11:24:34;;;;;;;94.57;49.07;;;;;;;;;;5055353;28;20206;-88
2021/01/30 11:27:00;;;;;;;104.03;46.80;;;;;;;;;;5056063;28;20160;-88
2021/01/30 11:29:42;;;;;;;78.83;39.07;;;;;;;;;;5055557;28;20168;-88
2021/01/30 11:32:12;;;;;;;93.93;41.63;;;;;;;;;;5055867;28;20167;-87
2021/01/30 11:34:37;;;;;;;104.90;46.80;;;;;;;;;;5053005;28;20175;-88
2021/01/30 11:37:03;;;;;;;166.33;57.37;;;;;;;;;;5053903;28;20727;-88
2021/01/30 11:39:30;;;;;;;271.73;80.53;;;;;;;;;;5054383;28;20257;-88
2021/01/30 11:41:56;;;;;;;163.77;57.50;;;;;;;;;;5036644;28;20199;-88
2021/01/30 11:44:21;;;;;;;291.40;80.47;;;;;;;;;;5055158;28;20717;-88
2021/01/30 11:46:47;;;;;;;131.93;48.20;;;;;;;;;;5055234;28;20174;-88
2021/01/30 11:49:13;;;;;;;419.33;111.70;;;;;;;;;;5054846;28;20180;-88
2021/01/30 11:51:38;;;;;;;240.30;71.10;;;;;;;;;;5055003;28;20172;-89
2021/01/30 11:54:06;;;;;;;109.30;44.20;;;;;;;;;;5037284;28;20187;-85
2021/01/30 11:56:32;;;;;;;261.63;91.00;;;;;;;;;;5054979;28;20168;-88
2021/01/30 11:58:58;;;;;;;288.60;87.20;;;;;;;;;;5055019;28;20175;-89
2021/01/30 12:01:24;;;;;;;148.10;54.17;;;;;;;;;;5055366;28;20171;-89
2021/01/30 12:03:49;;;;;;;86.90;43.03;;;;;;;;;;5054614;28;20192;-89
2021/01/30 12:06:15;;;;;;;84.77;43.17;;;;;;;;;;5054750;28;20168;-88
2021/01/30 12:08:40;;;;;;;148.33;66.13;;;;;;;;;;5036916;28;20175;-89
2021/01/30 12:11:06;;;;;;;78.20;41.23;;;;;;;;;;5037092;28;20187;-88
2021/01/30 12:13:33;;;;;;;121.10;55.33;;;;;;;;;;5054949;28;20164;-88
2021/01/30 12:15:59;;;;;;;94.40;48.03;;;;;;;;;;5028044;28;20184;-88
2021/01/30 12:18:24;;;;;;;95.13;47.20;;;;;;;;;;5035163;28;20184;-87
2021/01/30 12:20:51;;;;;;;81.87;41.97;;;;;;;;;;5017944;28;20605;-87
2021/01/30 12:23:17;;;;;;;57.70;32.50;;;;;;;;;;5035264;28;20236;-88
2021/01/30 12:25:44;;;;;;;58.37;31.63;;;;;;;;;;5015386;28;20229;-88
2021/01/30 12:28:19;;;;;;;57.10;30.83;;;;;;;;;;5035277;28;20192;-88
2021/01/30 12:30:44;;;;;;;57.20;32.17;;;;;;;;;;5035422;28;20156;-88
2021/01/30 12:33:09;;;;;;;69.00;36.27;;;;;;;;;;5033896;28;20183;-89
2021/01/30 12:35:36;;;;;;;55.30;31.60;;;;;;;;;;5034755;28;20176;-89
2021/01/30 12:38:03;;;;;;;59.87;32.30;;;;;;;;;;5034943;28;20193;-89
2021/01/30 12:40:30;;;;;;;74.30;36.10;;;;;;;;;;5035133;28;20165;-90
2021/01/30 12:42:58;;;;;;;63.33;34.87;;;;;;;;;;5034970;28;20173;-90
2021/01/30 12:45:23;;;;;;;83.10;40.80;;;;;;;;;;5033967;28;20175;-88
2021/01/30 12:47:49;;;;;;;46.13;27.17;;;;;;;;;;5033149;28;20259;-87
2021/01/30 12:50:16;;;;;;;47.90;28.27;;;;;;;;;;5034848;28;20184;-88
2021/01/30 12:52:41;;;;;;;49.57;29.53;;;;;;;;;;5035022;28;20168;-88
2021/01/30 12:55:07;;;;;;;42.67;26.13;;;;;;;;;;5032912;28;20318;-89
2021/01/30 12:57:33;;;;;;;42.60;27.63;;;;;;;;;;5030653;28;20273;-88
2021/01/30 12:59:58;;;;;;;37.00;24.33;;;;;;;;;;5023460;28;20641;-88
2021/01/30 13:02:25;;;;;;;40.17;25.70;;;;;;;;;;5046725;28;20184;-88
2021/01/30 13:04:50;;;;;;;39.20;24.33;;;;;;;;;;5014487;28;20197;-89
2021/01/30 13:07:16;;;;;;;40.13;24.47;;;;;;;;;;5013465;28;20171;-88
2021/01/30 13:09:41;;;;;;;40.53;24.57;;;;;;;;;;5015172;28;20511;-88
2021/01/30 13:12:10;;;;;;;41.60;24.33;;;;;;;;;;5014704;28;20224;-88
2021/01/30 13:14:37;;;;;;;35.37;21.60;;;;;;;;;;5013788;28;20239;-88
2021/01/30 13:17:02;;;;;;;36.37;22.27;;;;;;;;;;5013742;28;20264;-89
2021/01/30 13:19:27;;;;;;;32.03;20.13;;;;;;;;;;5013779;28;20267;-88
2021/01/30 13:21:52;;;;;;;34.80;21.67;;;;;;;;;;5013739;28;20195;-88
2021/01/30 13:24:19;;;;;;;32.03;20.80;;;;;;;;;;5013394;28;20568;-88
2021/01/30 13:26:45;;;;;;;32.03;20.67;;;;;;;;;;5044708;28;20254;-88
2021/01/30 13:29:12;;;;;;;36.00;20.60;;;;;;;;;;5051494;28;20685;-89
2021/01/30 13:31:45;;;;;;;32.30;21.03;;;;;;;;;;5052814;28;20195;-89
2021/01/30 13:34:12;;;;;;;33.73;20.37;;;;;;;;;;5053590;28;20187;-88
2021/01/30 13:36:37;;;;;;;37.70;23.00;;;;;;;;;;5034759;28;20509;-88
2021/01/30 13:39:04;;;;;;;40.33;24.77;;;;;;;;;;5053088;28;20175;-88
2021/01/30 13:41:29;;;;;;;36.30;23.03;;;;;;;;;;5035427;28;20522;-88
2021/01/30 13:43:55;;;;;;;43.80;25.43;;;;;;;;;;5052840;28;20191;-88
2021/01/30 13:46:21;;;;;;;42.87;28.07;;;;;;;;;;5053336;28;20176;-89
2021/01/30 13:48:46;;;;;;;55.33;27.70;;;;;;;;;;5053315;28;20257;-88
2021/01/30 13:51:13;;;;;;;44.90;27.63;;;;;;;;;;5052865;28;20261;-90
2021/01/30 13:53:39;;;;;;;57.23;32.67;;;;;;;;;;5032995;28;20219;-88
2021/01/30 13:56:04;;;;;;;57.73;32.50;;;;;;;;;;5052952;28;20624;-89
2021/01/30 13:58:29;;;;;;;60.37;32.37;;;;;;;;;;5053066;28;20171;-89
2021/01/30 14:00:55;;;;;;;67.30;38.20;;;;;;;;;;5052483;28;20267;-88
2021/01/30 14:03:20;;;;;;;58.00;32.47;;;;;;;;;;5032958;28;20203;-88
2021/01/30 14:05:46;;;;;;;51.77;31.03;;;;;;;;;;5051711;28;20180;-89
2021/01/30 14:08:11;;;;;;;47.00;28.30;;;;;;;;;;5051993;28;20190;-89
2021/01/30 14:10:36;;;;;;;48.23;28.20;;;;;;;;;;5034378;28;20289;-88
2021/01/30 14:13:02;;;;;;;52.07;27.43;;;;;;;;;;5052124;28;20199;-89
2021/01/30 14:15:28;;;;;;;43.87;26.83;;;;;;;;;;5050176;28;20172;-90
2021/01/30 14:17:56;;;;;;;49.47;29.43;;;;;;;;;;5050709;28;20274;-87
2021/01/30 14:20:22;;;;;;;53.13;31.17;;;;;;;;;;5033312;28;20563;-88
2021/01/30 14:22:47;;;;;;;58.17;34.90;;;;;;;;;;5052384;28;20167;-88